sensor_id;sensor_type;location;lat;lon;timestamp;pressure;altitude;pressure_sealevel;temperature;humidity
36254;BME280;22291;52.250;21.228;2024-01-06T00:01:03;99768.55;;;-1.98;88.49
36254;BME280;22291;52.250;21.228;2024-01-06T00:03:31;99770.96;;;-1.96;88.65
36254;BME280;22291;52.250;21.228;2024-01-06T00:05:57;99782.39;;;-1.96;88.68
36254;BME280;22291;52.250;21.228;2024-01-06T00:08:25;99775.41;;;-1.99;88.78
36254;BME280;22291;52.250;21.228;2024-01-06T00:10:52;99772.52;;;-1.98;88.85
36254;BME280;22291;52.250;21.228;2024-01-06T00:13:20;99773.29;;;-2.00;88.84
36254;BME280;22291;52.250;21.228;2024-01-06T00:15:47;99786.78;;;-2.01;88.88
36254;BME280;22291;52.250;21.228;2024-01-06T00:18:13;99780.98;;;-2.01;89.06
36254;BME280;22291;52.250;21.228;2024-01-06T00:20:40;99781.71;;;-2.03;89.26
36254;BME280;22291;52.250;21.228;2024-01-06T00:23:06;99788.87;;;-2.03;89.38
36254;BME280;22291;52.250;21.228;2024-01-06T00:25:33;99793.88;;;-2.04;89.59
36254;BME280;22291;52.250;21.228;2024-01-06T00:28:00;99781.45;;;-2.04;89.52
36254;BME280;22291;52.250;21.228;2024-01-06T00:30:26;99777.47;;;-2.04;89.57
36254;BME280;22291;52.250;21.228;2024-01-06T00:32:53;99789.66;;;-2.03;89.64
36254;BME280;22291;52.250;21.228;2024-01-06T00:35:19;99792.55;;;-2.04;89.67
36254;BME280;22291;52.250;21.228;2024-01-06T00:37:46;99792.55;;;-2.04;89.74
36254;BME280;22291;52.250;21.228;2024-01-06T00:40:13;99787.55;;;-2.03;90.10
36254;BME280;22291;52.250;21.228;2024-01-06T00:42:39;99793.41;;;-2.01;89.98
36254;BME280;22291;52.250;21.228;2024-01-06T00:45:06;99796.58;;;-2.02;89.82
36254;BME280;22291;52.250;21.228;2024-01-06T00:47:33;99800.00;;;-2.04;89.73
36254;BME280;22291;52.250;21.228;2024-01-06T00:50:00;99793.61;;;-2.05;89.81
36254;BME280;22291;52.250;21.228;2024-01-06T00:52:26;99788.80;;;-2.06;89.80
36254;BME280;22291;52.250;21.228;2024-01-06T00:54:53;99785.89;;;-2.07;89.83
36254;BME280;22291;52.250;21.228;2024-01-06T00:57:20;99782.91;;;-2.11;89.68
36254;BME280;22291;52.250;21.228;2024-01-06T00:59:48;99785.00;;;-2.13;89.69
36254;BME280;22291;52.250;21.228;2024-01-06T01:02:15;99780.41;;;-2.17;89.62
36254;BME280;22291;52.250;21.228;2024-01-06T01:04:41;99773.22;;;-2.19;89.81
36254;BME280;22291;52.250;21.228;2024-01-06T01:07:08;99771.30;;;-2.21;89.97
36254;BME280;22291;52.250;21.228;2024-01-06T01:09:34;99764.41;;;-2.22;90.10
36254;BME280;22291;52.250;21.228;2024-01-06T01:12:01;99766.21;;;-2.26;90.17
36254;BME280;22291;52.250;21.228;2024-01-06T01:14:27;99758.23;;;-2.28;90.12
36254;BME280;22291;52.250;21.228;2024-01-06T01:16:54;99758.46;;;-2.30;90.19
36254;BME280;22291;52.250;21.228;2024-01-06T01:19:21;99747.80;;;-2.32;90.31
36254;BME280;22291;52.250;21.228;2024-01-06T01:21:47;99748.59;;;-2.32;90.45
36254;BME280;22291;52.250;21.228;2024-01-06T01:24:14;99735.32;;;-2.34;90.39
36254;BME280;22291;52.250;21.228;2024-01-06T01:26:40;99744.53;;;-2.37;90.40
36254;BME280;22291;52.250;21.228;2024-01-06T01:29:07;99748.41;;;-2.42;90.40
36254;BME280;22291;52.250;21.228;2024-01-06T01:31:33;99755.80;;;-2.44;90.47
36254;BME280;22291;52.250;21.228;2024-01-06T01:34:00;99755.53;;;-2.45;90.61
36254;BME280;22291;52.250;21.228;2024-01-06T01:36:27;99760.30;;;-2.45;90.74
36254;BME280;22291;52.250;21.228;2024-01-06T01:38:53;99762.09;;;-2.48;90.81
36254;BME280;22291;52.250;21.228;2024-01-06T01:41:20;99764.20;;;-2.47;91.06
36254;BME280;22291;52.250;21.228;2024-01-06T01:43:46;99761.00;;;-2.49;91.21
36254;BME280;22291;52.250;21.228;2024-01-06T01:46:13;99761.75;;;-2.51;91.11
36254;BME280;22291;52.250;21.228;2024-01-06T01:48:40;99754.34;;;-2.52;91.26
36254;BME280;22291;52.250;21.228;2024-01-06T01:51:07;99760.13;;;-2.52;91.39
36254;BME280;22291;52.250;21.228;2024-01-06T01:53:34;99767.84;;;-2.51;91.47
36254;BME280;22291;52.250;21.228;2024-01-06T01:56:01;99759.64;;;-2.52;91.54
36254;BME280;22291;52.250;21.228;2024-01-06T01:58:27;99770.73;;;-2.52;91.53
36254;BME280;22291;52.250;21.228;2024-01-06T02:00:54;99757.78;;;-2.51;91.66
36254;BME280;22291;52.250;21.228;2024-01-06T02:03:22;99764.73;;;-2.48;91.72
36254;BME280;22291;52.250;21.228;2024-01-06T02:05:48;99764.44;;;-2.49;91.70
36254;BME280;22291;52.250;21.228;2024-01-06T02:08:15;99758.41;;;-2.47;91.69
36254;BME280;22291;52.250;21.228;2024-01-06T02:10:42;99753.61;;;-2.47;91.75
36254;BME280;22291;52.250;21.228;2024-01-06T02:13:14;99756.03;;;-2.46;91.76
36254;BME280;22291;52.250;21.228;2024-01-06T02:15:38;99750.96;;;-2.47;91.69
36254;BME280;22291;52.250;21.228;2024-01-06T02:18:05;99747.58;;;-2.45;91.70
36254;BME280;22291;52.250;21.228;2024-01-06T02:20:32;99748.64;;;-2.44;91.75
36254;BME280;22291;52.250;21.228;2024-01-06T02:22:59;99746.52;;;-2.44;91.74
36254;BME280;22291;52.250;21.228;2024-01-06T02:25:26;99747.84;;;-2.44;91.59
36254;BME280;22291;52.250;21.228;2024-01-06T02:27:53;99745.20;;;-2.44;91.69
36254;BME280;22291;52.250;21.228;2024-01-06T02:30:19;99738.81;;;-2.46;91.78
36254;BME280;22291;52.250;21.228;2024-01-06T02:32:46;99739.64;;;-2.45;91.70
36254;BME280;22291;52.250;21.228;2024-01-06T02:35:12;99741.46;;;-2.46;91.82
36254;BME280;22291;52.250;21.228;2024-01-06T02:37:39;99738.81;;;-2.46;91.71
36254;BME280;22291;52.250;21.228;2024-01-06T02:40:06;99736.45;;;-2.45;91.69
36254;BME280;22291;52.250;21.228;2024-01-06T02:42:34;99728.19;;;-2.48;91.77
36254;BME280;22291;52.250;21.228;2024-01-06T02:45:00;99733.75;;;-2.47;91.93
36254;BME280;22291;52.250;21.228;2024-01-06T02:47:27;99740.14;;;-2.46;91.83
36254;BME280;22291;52.250;21.228;2024-01-06T02:49:53;99731.69;;;-2.45;91.97
36254;BME280;22291;52.250;21.228;2024-01-06T02:52:20;99728.22;;;-2.46;91.86
36254;BME280;22291;52.250;21.228;2024-01-06T02:54:48;99721.89;;;-2.45;92.10
36254;BME280;22291;52.250;21.228;2024-01-06T02:57:15;99729.05;;;-2.45;91.94
36254;BME280;22291;52.250;21.228;2024-01-06T02:59:41;99727.19;;;-2.45;92.07
36254;BME280;22291;52.250;21.228;2024-01-06T03:02:07;99736.23;;;-2.43;92.17
36254;BME280;22291;52.250;21.228;2024-01-06T03:04:34;99728.28;;;-2.43;92.18
36254;BME280;22291;52.250;21.228;2024-01-06T03:07:01;99724.34;;;-2.40;92.32
36254;BME280;22291;52.250;21.228;2024-01-06T03:09:27;99728.88;;;-2.38;92.30
36254;BME280;22291;52.250;21.228;2024-01-06T03:11:54;99728.08;;;-2.39;92.23
36254;BME280;22291;52.250;21.228;2024-01-06T03:14:20;99718.02;;;-2.39;92.23
36254;BME280;22291;52.250;21.228;2024-01-06T03:16:47;99716.69;;;-2.39;92.10
36254;BME280;22291;52.250;21.228;2024-01-06T03:19:14;99716.16;;;-2.39;92.24
36254;BME280;22291;52.250;21.228;2024-01-06T03:21:40;99721.22;;;-2.37;92.15
36254;BME280;22291;52.250;21.228;2024-01-06T03:24:07;99727.31;;;-2.37;92.07
36254;BME280;22291;52.250;21.228;2024-01-06T03:26:35;99733.11;;;-2.40;92.01
36254;BME280;22291;52.250;21.228;2024-01-06T03:29:01;99726.19;;;-2.41;91.97
36254;BME280;22291;52.250;21.228;2024-01-06T03:31:29;99726.42;;;-2.42;91.88
36254;BME280;22291;52.250;21.228;2024-01-06T03:33:56;99729.31;;;-2.44;92.04
36254;BME280;22291;52.250;21.228;2024-01-06T03:36:22;99726.98;;;-2.40;92.39
36254;BME280;22291;52.250;21.228;2024-01-06T03:38:49;99728.08;;;-2.39;92.37
36254;BME280;22291;52.250;21.228;2024-01-06T03:41:16;99720.92;;;-2.38;92.43
36254;BME280;22291;52.250;21.228;2024-01-06T03:43:42;99715.39;;;-2.37;92.51
36254;BME280;22291;52.250;21.228;2024-01-06T03:46:08;99722.02;;;-2.37;92.60
36254;BME280;22291;52.250;21.228;2024-01-06T03:48:35;99709.86;;;-2.35;92.70
36254;BME280;22291;52.250;21.228;2024-01-06T03:51:02;99714.36;;;-2.36;92.53
36254;BME280;22291;52.250;21.228;2024-01-06T03:53:29;99717.58;;;-2.34;92.77
36254;BME280;22291;52.250;21.228;2024-01-06T03:55:56;99723.16;;;-2.33;92.84
36254;BME280;22291;52.250;21.228;2024-01-06T03:58:23;99725.58;;;-2.31;92.78
36254;BME280;22291;52.250;21.228;2024-01-06T04:00:49;99721.31;;;-2.32;92.71
36254;BME280;22291;52.250;21.228;2024-01-06T04:03:16;99715.25;;;-2.30;92.81
36254;BME280;22291;52.250;21.228;2024-01-06T04:05:42;99714.92;;;-2.34;92.65
36254;BME280;22291;52.250;21.228;2024-01-06T04:08:09;99712.51;;;-2.35;92.76
36254;BME280;22291;52.250;21.228;2024-01-06T04:10:36;99718.04;;;-2.37;92.82
36254;BME280;22291;52.250;21.228;2024-01-06T04:13:02;99723.34;;;-2.37;92.91
36254;BME280;22291;52.250;21.228;2024-01-06T04:15:29;99732.38;;;-2.35;93.03
36254;BME280;22291;52.250;21.228;2024-01-06T04:17:55;99732.38;;;-2.35;93.09
36254;BME280;22291;52.250;21.228;2024-01-06T04:20:22;99734.00;;;-2.34;93.21
36254;BME280;22291;52.250;21.228;2024-01-06T04:22:49;99739.33;;;-2.32;93.35
36254;BME280;22291;52.250;21.228;2024-01-06T04:25:16;99730.88;;;-2.31;93.46
36254;BME280;22291;52.250;21.228;2024-01-06T04:27:42;99736.20;;;-2.29;93.54
36254;BME280;22291;52.250;21.228;2024-01-06T04:30:11;99732.80;;;-2.27;93.61
36254;BME280;22291;52.250;21.228;2024-01-06T04:32:38;99729.11;;;-2.26;93.66
36254;BME280;22291;52.250;21.228;2024-01-06T04:35:05;99729.67;;;-2.23;93.57
36254;BME280;22291;52.250;21.228;2024-01-06T04:37:32;99730.50;;;-2.23;93.67
36254;BME280;22291;52.250;21.228;2024-01-06T04:39:59;99736.36;;;-2.21;93.54
36254;BME280;22291;52.250;21.228;2024-01-06T04:42:26;99738.19;;;-2.21;93.46
36254;BME280;22291;52.250;21.228;2024-01-06T04:44:52;99741.10;;;-2.23;93.41
36254;BME280;22291;52.250;21.228;2024-01-06T04:47:19;99742.92;;;-2.23;93.41
36254;BME280;22291;52.250;21.228;2024-01-06T04:49:46;99739.77;;;-2.23;93.37
36254;BME280;22291;52.250;21.228;2024-01-06T04:52:12;99742.42;;;-2.23;93.42
36254;BME280;22291;52.250;21.228;2024-01-06T04:54:39;99745.08;;;-2.23;93.60
36254;BME280;22291;52.250;21.228;2024-01-06T04:57:05;99742.16;;;-2.21;93.64
36254;BME280;22291;52.250;21.228;2024-01-06T04:59:32;99750.41;;;-2.20;93.64
36254;BME280;22291;52.250;21.228;2024-01-06T05:01:58;99755.47;;;-2.19;93.68
36254;BME280;22291;52.250;21.228;2024-01-06T05:04:25;99753.11;;;-2.18;93.75
36254;BME280;22291;52.250;21.228;2024-01-06T05:06:52;99761.33;;;-2.17;93.79
36254;BME280;22291;52.250;21.228;2024-01-06T05:09:19;99765.59;;;-2.16;93.75
36254;BME280;22291;52.250;21.228;2024-01-06T05:11:45;99757.12;;;-2.15;93.78
36254;BME280;22291;52.250;21.228;2024-01-06T05:14:12;99759.47;;;-2.16;93.61
36254;BME280;22291;52.250;21.228;2024-01-06T05:16:39;99751.52;;;-2.16;93.52
36254;BME280;22291;52.250;21.228;2024-01-06T05:19:05;99756.03;;;-2.17;93.55
36254;BME280;22291;52.250;21.228;2024-01-06T05:21:32;99747.05;;;-2.16;93.60
36254;BME280;22291;52.250;21.228;2024-01-06T05:23:59;99745.95;;;-2.17;93.52
36254;BME280;22291;52.250;21.228;2024-01-06T05:26:26;99740.10;;;-2.19;93.32
36254;BME280;22291;52.250;21.228;2024-01-06T05:28:53;99747.98;;;-2.22;93.31
36254;BME280;22291;52.250;21.228;2024-01-06T05:31:19;99757.50;;;-2.23;93.41
36254;BME280;22291;52.250;21.228;2024-01-06T05:33:46;99759.35;;;-2.24;93.39
36254;BME280;22291;52.250;21.228;2024-01-06T05:36:13;99763.56;;;-2.26;93.39
36254;BME280;22291;52.250;21.228;2024-01-06T05:38:39;99760.91;;;-2.26;93.58
36254;BME280;22291;52.250;21.228;2024-01-06T05:41:06;99769.95;;;-2.24;93.66
36254;BME280;22291;52.250;21.228;2024-01-06T05:43:33;99773.39;;;-2.23;93.70
36254;BME280;22291;52.250;21.228;2024-01-06T05:45:59;99775.81;;;-2.22;93.76
36254;BME280;22291;52.250;21.228;2024-01-06T05:48:26;99769.16;;;-2.24;93.61
36254;BME280;22291;52.250;21.228;2024-01-06T05:50:52;99765.67;;;-2.25;93.66
36254;BME280;22291;52.250;21.228;2024-01-06T05:53:19;99766.73;;;-2.26;93.65
36254;BME280;22291;52.250;21.228;2024-01-06T05:55:46;99771.47;;;-2.28;93.69
36254;BME280;22291;52.250;21.228;2024-01-06T05:58:12;99773.30;;;-2.29;93.74
36254;BME280;22291;52.250;21.228;2024-01-06T06:00:39;99780.16;;;-2.30;93.73
36254;BME280;22291;52.250;21.228;2024-01-06T06:03:06;99771.94;;;-2.31;93.78
36254;BME280;22291;52.250;21.228;2024-01-06T06:05:33;99766.11;;;-2.31;93.80
36254;BME280;22291;52.250;21.228;2024-01-06T06:08:00;99759.20;;;-2.32;93.76
36254;BME280;22291;52.250;21.228;2024-01-06T06:10:26;99770.52;;;-2.36;93.63
36254;BME280;22291;52.250;21.228;2024-01-06T06:12:55;99768.61;;;-2.38;93.72
36254;BME280;22291;52.250;21.228;2024-01-06T06:15:21;99778.94;;;-2.39;93.72
36254;BME280;22291;52.250;21.228;2024-01-06T06:17:48;99780.20;;;-2.42;93.77
36254;BME280;22291;52.250;21.228;2024-01-06T06:20:15;99784.93;;;-2.44;93.72
36254;BME280;22291;52.250;21.228;2024-01-06T06:22:41;99798.70;;;-2.45;93.87
36254;BME280;22291;52.250;21.228;2024-01-06T06:25:08;99788.37;;;-2.44;94.05
36254;BME280;22291;52.250;21.228;2024-01-06T06:27:35;99800.03;;;-2.45;94.00
36254;BME280;22291;52.250;21.228;2024-01-06T06:30:03;99813.30;;;-2.42;94.22
36254;BME280;22291;52.250;21.228;2024-01-06T06:32:30;99805.13;;;-2.40;94.27
36254;BME280;22291;52.250;21.228;2024-01-06T06:34:56;99799.33;;;-2.40;94.20
36254;BME280;22291;52.250;21.228;2024-01-06T06:37:23;99811.25;;;-2.40;94.10
36254;BME280;22291;52.250;21.228;2024-01-06T06:39:50;99809.06;;;-2.43;94.03
36254;BME280;22291;52.250;21.228;2024-01-06T06:42:16;99816.25;;;-2.41;94.13
36254;BME280;22291;52.250;21.228;2024-01-06T06:44:43;99815.45;;;-2.41;94.12
36254;BME280;22291;52.250;21.228;2024-01-06T06:47:09;99811.48;;;-2.41;94.17
36254;BME280;22291;52.250;21.228;2024-01-06T06:49:35;99815.95;;;-2.42;94.08
36254;BME280;22291;52.250;21.228;2024-01-06T06:52:02;99806.69;;;-2.42;94.13
36254;BME280;22291;52.250;21.228;2024-01-06T06:54:30;99808.84;;;-2.41;94.11
36254;BME280;22291;52.250;21.228;2024-01-06T06:56:56;99813.08;;;-2.40;94.23
36254;BME280;22291;52.250;21.228;2024-01-06T06:59:23;99819.70;;;-2.40;94.09
36254;BME280;22291;52.250;21.228;2024-01-06T07:01:50;99830.52;;;-2.42;94.02
36254;BME280;22291;52.250;21.228;2024-01-06T07:04:16;99830.75;;;-2.44;94.07
36254;BME280;22291;52.250;21.228;2024-01-06T07:06:42;99839.30;;;-2.41;94.06
36254;BME280;22291;52.250;21.228;2024-01-06T07:09:09;99843.77;;;-2.42;93.90
36254;BME280;22291;52.250;21.228;2024-01-06T07:11:35;99845.62;;;-2.42;94.04
36254;BME280;22291;52.250;21.228;2024-01-06T07:14:02;99853.63;;;-2.40;94.10
36254;BME280;22291;52.250;21.228;2024-01-06T07:16:28;99845.92;;;-2.41;94.07
36254;BME280;22291;52.250;21.228;2024-01-06T07:18:55;99845.69;;;-2.40;94.07
36254;BME280;22291;52.250;21.228;2024-01-06T07:21:22;99847.58;;;-2.38;94.09
36254;BME280;22291;52.250;21.228;2024-01-06T07:23:49;99843.60;;;-2.38;94.09
36254;BME280;22291;52.250;21.228;2024-01-06T07:26:15;99847.11;;;-2.35;94.22
36254;BME280;22291;52.250;21.228;2024-01-06T07:28:43;99843.17;;;-2.32;94.12
36254;BME280;22291;52.250;21.228;2024-01-06T07:31:09;99843.47;;;-2.31;94.17
36254;BME280;22291;52.250;21.228;2024-01-06T07:33:36;99839.20;;;-2.32;93.96
36254;BME280;22291;52.250;21.228;2024-01-06T07:36:03;99836.78;;;-2.34;93.85
36254;BME280;22291;52.250;21.228;2024-01-06T07:38:30;99834.43;;;-2.33;93.75
36254;BME280;22291;52.250;21.228;2024-01-06T07:40:57;99827.52;;;-2.34;93.74
36254;BME280;22291;52.250;21.228;2024-01-06T07:43:24;99829.07;;;-2.35;93.67
36254;BME280;22291;52.250;21.228;2024-01-06T07:45:50;99831.72;;;-2.35;93.87
36254;BME280;22291;52.250;21.228;2024-01-06T07:48:17;99837.88;;;-2.32;94.05
36254;BME280;22291;52.250;21.228;2024-01-06T07:50:44;99847.45;;;-2.31;93.98
36254;BME280;22291;52.250;21.228;2024-01-06T07:53:11;99842.65;;;-2.32;93.84
36254;BME280;22291;52.250;21.228;2024-01-06T07:55:40;99860.47;;;-2.30;93.91
36254;BME280;22291;52.250;21.228;2024-01-06T07:58:06;99870.53;;;-2.29;93.69
36254;BME280;22291;52.250;21.228;2024-01-06T08:00:33;99865.53;;;-2.28;93.69
36254;BME280;22291;52.250;21.228;2024-01-06T08:03:00;99874.55;;;-2.27;93.88
36254;BME280;22291;52.250;21.228;2024-01-06T08:05:26;99876.46;;;-2.24;93.86
36254;BME280;22291;52.250;21.228;2024-01-06T08:07:53;99878.87;;;-2.23;93.75
36254;BME280;22291;52.250;21.228;2024-01-06T08:10:20;99882.86;;;-2.23;93.72
36254;BME280;22291;52.250;21.228;2024-01-06T08:12:46;99885.77;;;-2.22;93.62
36254;BME280;22291;52.250;21.228;2024-01-06T08:15:14;99895.11;;;-2.19;93.80
36254;BME280;22291;52.250;21.228;2024-01-06T08:17:40;99889.81;;;-2.19;93.57
36254;BME280;22291;52.250;21.228;2024-01-06T08:20:07;99888.48;;;-2.19;93.60
36254;BME280;22291;52.250;21.228;2024-01-06T08:22:34;99889.84;;;-2.17;93.42
36254;BME280;22291;52.250;21.228;2024-01-06T08:25:01;99894.39;;;-2.15;93.83
36254;BME280;22291;52.250;21.228;2024-01-06T08:27:28;99888.09;;;-2.11;93.81
36254;BME280;22291;52.250;21.228;2024-01-06T08:29:55;99885.21;;;-2.10;93.81
36254;BME280;22291;52.250;21.228;2024-01-06T08:32:22;99886.87;;;-2.06;93.72
36254;BME280;22291;52.250;21.228;2024-01-06T08:34:48;99892.23;;;-2.03;93.65
36254;BME280;22291;52.250;21.228;2024-01-06T08:37:15;99893.03;;;-2.03;93.43
36254;BME280;22291;52.250;21.228;2024-01-06T08:39:41;99894.59;;;-2.04;93.18
36254;BME280;22291;52.250;21.228;2024-01-06T08:42:08;99906.75;;;-2.06;92.80
36254;BME280;22291;52.250;21.228;2024-01-06T08:44:35;99912.58;;;-2.07;93.11
36254;BME280;22291;52.250;21.228;2024-01-06T08:47:01;99914.77;;;-2.03;93.23
36254;BME280;22291;52.250;21.228;2024-01-06T08:49:28;99911.59;;;-2.03;93.24
36254;BME280;22291;52.250;21.228;2024-01-06T08:51:55;99921.79;;;-1.97;93.46
36254;BME280;22291;52.250;21.228;2024-01-06T08:54:21;99909.63;;;-1.96;93.57
36254;BME280;22291;52.250;21.228;2024-01-06T08:56:49;99914.20;;;-1.91;93.40
36254;BME280;22291;52.250;21.228;2024-01-06T08:59:16;99914.73;;;-1.92;93.28
36254;BME280;22291;52.250;21.228;2024-01-06T09:01:42;99926.53;;;-1.85;93.20
36254;BME280;22291;52.250;21.228;2024-01-06T09:04:09;99919.91;;;-1.85;92.89
36254;BME280;22291;52.250;21.228;2024-01-06T09:06:37;99922.32;;;-1.83;93.12
36254;BME280;22291;52.250;21.228;2024-01-06T09:09:03;99926.06;;;-1.82;92.88
36254;BME280;22291;52.250;21.228;2024-01-06T09:11:31;99926.86;;;-1.81;92.81
36254;BME280;22291;52.250;21.228;2024-01-06T09:13:58;99926.33;;;-1.81;92.77
36254;BME280;22291;52.250;21.228;2024-01-06T09:16:25;99930.08;;;-1.79;92.62
36254;BME280;22291;52.250;21.228;2024-01-06T09:18:51;99935.61;;;-1.81;92.71
36254;BME280;22291;52.250;21.228;2024-01-06T09:21:18;99938.59;;;-1.77;92.84
36254;BME280;22291;52.250;21.228;2024-01-06T09:23:44;99937.86;;;-1.75;92.82
36254;BME280;22291;52.250;21.228;2024-01-06T09:26:11;99933.59;;;-1.76;92.59
36254;BME280;22291;52.250;21.228;2024-01-06T09:28:37;99929.08;;;-1.76;92.46
36254;BME280;22291;52.250;21.228;2024-01-06T09:31:05;99930.08;;;-1.79;92.11
36254;BME280;22291;52.250;21.228;2024-01-06T09:33:31;99941.48;;;-1.79;92.25
36254;BME280;22291;52.250;21.228;2024-01-06T09:36:00;99949.44;;;-1.79;92.05
36254;BME280;22291;52.250;21.228;2024-01-06T09:38:27;99951.75;;;-1.82;91.95
36254;BME280;22291;52.250;21.228;2024-01-06T09:40:55;99947.51;;;-1.83;91.89
36254;BME280;22291;52.250;21.228;2024-01-06T09:43:23;99939.26;;;-1.84;91.96
36254;BME280;22291;52.250;21.228;2024-01-06T09:45:55;99935.34;;;-1.82;92.48
36254;BME280;22291;52.250;21.228;2024-01-06T09:48:26;99934.34;;;-1.78;92.61
36254;BME280;22291;52.250;21.228;2024-01-06T09:50:56;99948.47;;;-1.75;92.69
36254;BME280;22291;52.250;21.228;2024-01-06T09:53:26;99940.75;;;-1.77;92.17
36254;BME280;22291;52.250;21.228;2024-01-06T09:55:55;99938.89;;;-1.76;92.24
36254;BME280;22291;52.250;21.228;2024-01-06T09:58:22;99940.52;;;-1.75;91.96
36254;BME280;22291;52.250;21.228;2024-01-06T10:00:48;99940.69;;;-1.79;91.84
36254;BME280;22291;52.250;21.228;2024-01-06T10:03:15;99939.92;;;-1.77;92.04
36254;BME280;22291;52.250;21.228;2024-01-06T10:05:42;99927.75;;;-1.76;92.12
36254;BME280;22291;52.250;21.228;2024-01-06T10:08:08;99932.83;;;-1.74;92.23
36254;BME280;22291;52.250;21.228;2024-01-06T10:10:35;99936.23;;;-1.76;91.77
36254;BME280;22291;52.250;21.228;2024-01-06T10:13:02;99937.03;;;-1.76;92.00
36254;BME280;22291;52.250;21.228;2024-01-06T10:15:28;99939.42;;;-1.77;91.90
36254;BME280;22291;52.250;21.228;2024-01-06T10:17:55;99944.20;;;-1.76;92.08
36254;BME280;22291;52.250;21.228;2024-01-06T10:20:22;99945.59;;;-1.74;92.35
36254;BME280;22291;52.250;21.228;2024-01-06T10:22:48;99944.49;;;-1.75;92.12
36254;BME280;22291;52.250;21.228;2024-01-06T10:25:15;99942.08;;;-1.77;92.10
36254;BME280;22291;52.250;21.228;2024-01-06T10:27:42;99944.66;;;-1.79;91.86
36254;BME280;22291;52.250;21.228;2024-01-06T10:30:09;99942.80;;;-1.79;92.31
36254;BME280;22291;52.250;21.228;2024-01-06T10:32:36;99950.53;;;-1.77;92.49
36254;BME280;22291;52.250;21.228;2024-01-06T10:35:04;99952.38;;;-1.78;92.68
36254;BME280;22291;52.250;21.228;2024-01-06T10:37:32;99950.06;;;-1.74;92.86
36254;BME280;22291;52.250;21.228;2024-01-06T10:40:13;99947.41;;;-1.74;92.85
36254;BME280;22291;52.250;21.228;2024-01-06T10:42:45;99946.65;;;-1.72;92.95
36254;BME280;22291;52.250;21.228;2024-01-06T10:45:13;99952.05;;;-1.67;93.26
36254;BME280;22291;52.250;21.228;2024-01-06T10:47:42;99947.90;;;-1.63;93.35
36254;BME280;22291;52.250;21.228;2024-01-06T10:50:09;99949.49;;;-1.62;93.26
36254;BME280;22291;52.250;21.228;2024-01-06T10:52:38;99948.76;;;-1.60;93.12
36254;BME280;22291;52.250;21.228;2024-01-06T10:55:05;99952.50;;;-1.58;93.25
36254;BME280;22291;52.250;21.228;2024-01-06T10:57:32;99952.53;;;-1.56;93.36
36254;BME280;22291;52.250;21.228;2024-01-06T11:00:00;99955.72;;;-1.56;92.87
36254;BME280;22291;52.250;21.228;2024-01-06T11:02:27;99948.56;;;-1.56;93.16
36254;BME280;22291;52.250;21.228;2024-01-06T11:04:53;99948.09;;;-1.53;93.24
36254;BME280;22291;52.250;21.228;2024-01-06T11:07:21;99939.16;;;-1.46;93.79
36254;BME280;22291;52.250;21.228;2024-01-06T11:12:31;99933.89;;;-1.29;94.22
36254;BME280;22291;52.250;21.228;2024-01-06T11:14:58;99930.27;;;-1.26;94.07
36254;BME280;22291;52.250;21.228;2024-01-06T11:17:52;99934.83;;;-1.21;93.67
36254;BME280;22291;52.250;21.228;2024-01-06T11:20:22;99935.69;;;-1.18;93.43
36254;BME280;22291;52.250;21.228;2024-01-06T11:22:50;99932.70;;;-1.22;92.90
36254;BME280;22291;52.250;21.228;2024-01-06T11:25:18;99934.36;;;-1.18;93.10
36254;BME280;22291;52.250;21.228;2024-01-06T11:27:47;99942.09;;;-1.17;92.97
36254;BME280;22291;52.250;21.228;2024-01-06T11:30:23;99931.00;;;-1.14;93.05
36254;BME280;22291;52.250;21.228;2024-01-06T11:32:52;99936.86;;;-1.11;92.87
36254;BME280;22291;52.250;21.228;2024-01-06T11:35:20;99948.36;;;-1.06;93.05
36254;BME280;22291;52.250;21.228;2024-01-06T11:45:40;99962.55;;;-1.15;91.53
36254;BME280;22291;52.250;21.228;2024-01-06T11:48:08;99955.59;;;-1.18;91.61
36254;BME280;22291;52.250;21.228;2024-01-06T11:50:39;99952.62;;;-1.22;91.43
36254;BME280;22291;52.250;21.228;2024-01-06T11:53:07;99952.05;;;-1.24;91.65
36254;BME280;22291;52.250;21.228;2024-01-06T11:55:40;99956.63;;;-1.19;92.20
36254;BME280;22291;52.250;21.228;2024-01-06T11:58:08;99955.44;;;-1.11;92.62
36254;BME280;22291;52.250;21.228;2024-01-06T12:00:35;99948.89;;;-1.06;92.76
36254;BME280;22291;52.250;21.228;2024-01-06T12:03:07;99954.52;;;-1.03;92.51
36254;BME280;22291;52.250;21.228;2024-01-06T12:05:34;99951.63;;;-1.01;92.08
36254;BME280;22291;52.250;21.228;2024-01-06T12:08:03;99958.74;;;-1.04;91.45
36254;BME280;22291;52.250;21.228;2024-01-06T12:10:33;99951.31;;;-1.05;91.42
36254;BME280;22291;52.250;21.228;2024-01-06T12:13:01;99946.45;;;-1.10;91.07
36254;BME280;22291;52.250;21.228;2024-01-06T12:15:33;99954.41;;;-1.10;90.84
36254;BME280;22291;52.250;21.228;2024-01-06T12:18:02;99956.39;;;-1.18;90.63
36254;BME280;22291;52.250;21.228;2024-01-06T12:20:29;99959.34;;;-1.17;91.07
36254;BME280;22291;52.250;21.228;2024-01-06T12:22:57;99962.52;;;-1.17;90.91
36254;BME280;22291;52.250;21.228;2024-01-06T12:25:25;99965.41;;;-1.19;90.58
36254;BME280;22291;52.250;21.228;2024-01-06T12:27:54;99967.98;;;-1.24;89.96
36254;BME280;22291;52.250;21.228;2024-01-06T12:30:22;99968.39;;;-1.29;90.13
36254;BME280;22291;52.250;21.228;2024-01-06T12:32:50;99968.39;;;-1.29;90.24
36254;BME280;22291;52.250;21.228;2024-01-06T12:35:18;99975.23;;;-1.34;89.75
36254;BME280;22291;52.250;21.228;2024-01-06T12:37:45;99964.84;;;-1.35;90.14
36254;BME280;22291;52.250;21.228;2024-01-06T12:40:13;99973.58;;;-1.37;90.01
36254;BME280;22291;52.250;21.228;2024-01-06T12:42:41;99981.83;;;-1.36;89.28
36254;BME280;22291;52.250;21.228;2024-01-06T12:45:08;99985.72;;;-1.41;89.42
36254;BME280;22291;52.250;21.228;2024-01-06T12:47:36;99991.02;;;-1.41;89.38
36254;BME280;22291;52.250;21.228;2024-01-06T12:50:02;99987.05;;;-1.41;89.41
36254;BME280;22291;52.250;21.228;2024-01-06T12:52:30;99983.56;;;-1.42;89.33
36254;BME280;22291;52.250;21.228;2024-01-06T12:54:56;99981.83;;;-1.36;89.26
36254;BME280;22291;52.250;21.228;2024-01-06T12:57:23;99987.14;;;-1.36;88.96
36254;BME280;22291;52.250;21.228;2024-01-06T12:59:49;99990.30;;;-1.37;88.92